createdAt,value
2023-01-01T00:00:50.157Z,4.90
2023-01-01T00:03:17.285Z,4.70
2023-01-01T00:05:44.186Z,3.97
2023-01-01T00:08:11.126Z,4.55
2023-01-01T00:10:38.236Z,4.25
2023-01-01T00:13:05.171Z,3.78
2023-01-01T00:15:32.292Z,3.90
2023-01-01T00:17:59.658Z,3.83
2023-01-01T00:20:30.158Z,4.13
2023-01-01T00:22:58.468Z,5.00
2023-01-01T00:25:25.328Z,4.70
2023-01-01T00:27:52.493Z,4.57
2023-01-01T00:30:19.419Z,5.60
2023-01-01T00:32:55.566Z,5.13
2023-01-01T00:35:27.360Z,4.22
2023-01-01T00:37:55.374Z,4.60
2023-01-01T00:40:22.895Z,3.95
2023-01-01T00:42:49.809Z,4.57
2023-01-01T00:45:21.348Z,4.50
2023-01-01T00:47:49.991Z,4.07
2023-01-01T00:50:16.997Z,4.43
2023-01-01T00:52:44.185Z,4.82
2023-01-01T00:55:11.644Z,5.22
2023-01-01T00:57:38.524Z,5.28
2023-01-01T01:00:06.366Z,5.07
2023-01-01T01:02:33.408Z,5.45
2023-01-01T01:05:01.507Z,5.05
2023-01-01T01:07:28.345Z,6.00
2023-01-01T01:09:55.298Z,4.75
2023-01-01T01:12:22.200Z,4.85
2023-01-01T01:14:49.057Z,5.38
2023-01-01T01:17:15.950Z,5.13
2023-01-01T01:19:42.780Z,4.88
2023-01-01T01:22:09.712Z,4.70
2023-01-01T01:24:36.499Z,6.35
2023-01-01T01:27:03.385Z,5.25
2023-01-01T01:29:30.240Z,6.10
2023-01-01T01:31:57.064Z,5.65
2023-01-01T01:34:27.794Z,5.47
2023-01-01T01:36:55.500Z,5.97
2023-01-01T01:39:22.568Z,6.28
2023-01-01T01:41:49.543Z,6.47
2023-01-01T01:44:44.228Z,5.88
2023-01-01T01:47:29.777Z,6.05
2023-01-01T01:50:13.557Z,5.80
2023-01-01T01:52:46.864Z,6.25
2023-01-01T01:55:14.260Z,6.72
2023-01-01T01:57:42.087Z,5.82
2023-01-01T02:00:11.655Z,6.32
2023-01-01T02:02:46.610Z,5.15
2023-01-01T02:05:14.098Z,6.55
2023-01-01T02:07:41.764Z,5.68
2023-01-01T02:10:08.933Z,5.57
2023-01-01T02:12:35.765Z,5.22
2023-01-01T02:15:02.765Z,5.00
2023-01-01T02:17:39.877Z,5.72
2023-01-01T02:20:19.098Z,4.88
2023-01-01T02:22:57.909Z,5.00
2023-01-01T02:25:51.625Z,4.97
2023-01-01T02:28:33.586Z,5.22
2023-01-01T02:31:02.079Z,4.40
2023-01-01T02:33:29.759Z,5.03
2023-01-01T02:36:03.536Z,5.78
2023-01-01T02:38:36.659Z,5.70
2023-01-01T02:41:08.018Z,5.10
2023-01-01T02:43:34.865Z,4.60
2023-01-01T02:46:06.925Z,5.05
2023-01-01T02:48:50.357Z,4.95
2023-01-01T02:51:23.218Z,5.43
2023-01-01T02:57:07.947Z,5.53
2023-01-01T02:59:52.951Z,5.03
2023-01-01T03:02:25.749Z,4.78
2023-01-01T03:07:49.480Z,4.35
2023-01-01T03:10:25.855Z,4.97
2023-01-01T03:13:11.435Z,4.30
2023-01-01T03:16:10.594Z,4.10
2023-01-01T03:18:42.190Z,4.22
2023-01-01T03:23:49.857Z,4.05
2023-01-01T03:26:19.392Z,4.40
2023-01-01T03:28:56.012Z,3.88
2023-01-01T03:31:26.313Z,3.60
2023-01-01T03:34:00.279Z,3.42
2023-01-01T03:36:37.633Z,3.88
2023-01-01T03:39:13.357Z,3.80
2023-01-01T03:42:11.147Z,3.38
2023-01-01T03:44:56.520Z,3.67
2023-01-01T03:47:23.909Z,3.35
2023-01-01T03:49:50.962Z,3.53
2023-01-01T03:52:29.515Z,3.00
2023-01-01T03:55:12.324Z,3.10
2023-01-01T03:57:41.804Z,3.05
2023-01-01T04:00:17.093Z,3.38
2023-01-01T04:02:57.217Z,3.60
2023-01-01T04:05:25.162Z,2.70
2023-01-01T04:07:53.659Z,3.00
2023-01-01T04:10:21.576Z,2.70
2023-01-01T04:12:52.024Z,2.63
2023-01-01T04:15:21.535Z,2.53
2023-01-01T04:17:48.388Z,2.28
2023-01-01T04:20:15.267Z,2.40
2023-01-01T04:22:42.042Z,2.45
2023-01-01T04:25:09.836Z,2.50
2023-01-01T04:27:37.042Z,2.67
2023-01-01T04:30:06.123Z,2.28
2023-01-01T04:32:32.989Z,2.70
2023-01-01T04:35:00.118Z,2.95
2023-01-01T04:37:27.259Z,2.65
2023-01-01T04:39:54.135Z,2.97
2023-01-01T04:42:20.962Z,2.10
2023-01-01T04:44:47.727Z,2.20
2023-01-01T04:47:14.595Z,2.05
2023-01-01T04:49:41.553Z,2.50
2023-01-01T04:52:08.456Z,1.98
2023-01-01T04:54:35.358Z,2.22
2023-01-01T04:57:02.196Z,1.98
2023-01-01T04:59:30.885Z,2.00
2023-01-01T05:01:58.540Z,2.08
2023-01-01T05:04:25.432Z,2.28
2023-01-01T05:06:52.173Z,2.33
2023-01-01T05:09:18.989Z,2.22
2023-01-01T05:11:45.768Z,1.80
2023-01-01T05:14:12.644Z,1.90
2023-01-01T05:16:40.441Z,2.08
2023-01-01T05:19:09.065Z,1.92
2023-01-01T05:21:38.437Z,2.17
2023-01-01T05:24:10.340Z,1.83
2023-01-01T05:26:39.364Z,2.20
2023-01-01T05:29:11.879Z,2.20
2023-01-01T05:31:42.856Z,2.47
2023-01-01T05:34:10.058Z,1.80
2023-01-01T05:36:38.467Z,2.20
2023-01-01T05:39:07.457Z,2.00
2023-01-01T05:41:36.712Z,2.00
2023-01-01T05:44:05.877Z,1.90
2023-01-01T05:46:33.193Z,2.42
2023-01-01T05:48:59.998Z,2.80
2023-01-01T05:51:28.700Z,2.00
2023-01-01T05:53:56.394Z,1.80
2023-01-01T05:56:23.765Z,2.30
2023-01-01T05:58:52.409Z,2.03
2023-01-01T06:01:30.564Z,1.55
2023-01-01T06:03:58.913Z,2.13
2023-01-01T06:06:29.048Z,2.00
2023-01-01T06:09:01.573Z,1.75
2023-01-01T06:11:29.718Z,1.90
2023-01-01T06:13:59.022Z,1.95
2023-01-01T06:16:27.010Z,2.03
2023-01-01T06:18:53.837Z,1.65
2023-01-01T06:21:22.963Z,1.98
2023-01-01T06:23:50.168Z,2.10
2023-01-01T06:26:19.884Z,2.35
2023-01-01T06:28:47.448Z,2.05
2023-01-01T06:31:17.957Z,3.00
2023-01-01T06:33:45.443Z,2.20
2023-01-01T06:36:14.437Z,1.95
2023-01-01T06:38:43.598Z,2.15
2023-01-01T06:41:16.297Z,1.80
2023-01-01T06:43:43.780Z,1.60
2023-01-01T06:46:20.688Z,1.60
2023-01-01T06:48:49.828Z,1.98
2023-01-01T06:51:19.600Z,1.80
2023-01-01T06:53:47.433Z,1.80
2023-01-01T06:56:14.427Z,2.38
2023-01-01T06:58:41.214Z,2.17
2023-01-01T07:01:16.744Z,2.30
2023-01-01T07:03:44.662Z,2.15
2023-01-01T07:06:11.747Z,1.90
2023-01-01T07:08:38.610Z,1.65
2023-01-01T07:11:05.491Z,1.80
2023-01-01T07:13:32.479Z,1.85
2023-01-01T07:15:59.349Z,2.03
2023-01-01T07:18:26.581Z,1.95
2023-01-01T07:20:56.660Z,2.10
2023-01-01T07:23:23.791Z,1.92
2023-01-01T07:25:51.686Z,2.28
2023-01-01T07:28:19.232Z,2.08
2023-01-01T07:30:46.148Z,2.05
2023-01-01T07:33:15.717Z,2.05
2023-01-01T07:35:44.848Z,1.70
2023-01-01T07:38:11.773Z,1.90
2023-01-01T07:40:38.564Z,2.28
2023-01-01T07:43:05.363Z,2.10
2023-01-01T07:45:33.171Z,2.22
2023-01-01T07:48:00.592Z,1.83
2023-01-01T07:50:29.960Z,2.42
2023-01-01T07:52:57.322Z,2.00
2023-01-01T07:55:24.504Z,2.95
2023-01-01T07:57:51.385Z,2.38
2023-01-01T08:00:21.776Z,2.20
2023-01-01T08:02:49.112Z,1.92
2023-01-01T08:05:21.154Z,2.15
2023-01-01T08:07:51.645Z,2.20
2023-01-01T08:10:20.556Z,2.58
2023-01-01T08:12:47.728Z,2.13
2023-01-01T08:15:15.334Z,2.30
2023-01-01T08:17:46.412Z,1.80
2023-01-01T08:20:13.443Z,2.20
2023-01-01T08:22:40.414Z,2.28
2023-01-01T08:25:07.585Z,2.08
2023-01-01T08:27:34.354Z,2.28
2023-01-01T08:30:01.171Z,2.08
2023-01-01T08:32:27.980Z,1.88
2023-01-01T08:34:54.764Z,2.20
2023-01-01T08:37:22.639Z,1.83
2023-01-01T08:39:51.132Z,2.05
2023-01-01T08:42:18.270Z,2.67
2023-01-01T08:44:45.026Z,2.20
2023-01-01T08:47:26.329Z,2.58
2023-01-01T08:49:53.406Z,2.25
2023-01-01T08:52:21.467Z,2.42
2023-01-01T08:54:48.441Z,2.60
2023-01-01T08:57:19.148Z,2.67
2023-01-01T08:59:47.916Z,2.75
2023-01-01T09:02:14.831Z,2.88
2023-01-01T09:04:41.828Z,2.88
2023-01-01T09:07:08.739Z,3.60
2023-01-01T09:09:44.196Z,3.38
2023-01-01T09:12:14.940Z,3.13
2023-01-01T09:14:42.560Z,3.00
2023-01-01T09:17:09.856Z,2.92
2023-01-01T09:19:36.785Z,3.80
2023-01-01T09:22:03.725Z,3.35
2023-01-01T09:24:31.904Z,3.40
2023-01-01T10:19:43.924Z,2.65
2023-01-01T10:22:20.592Z,2.30
2023-01-01T10:25:01.817Z,2.28
2023-01-01T10:27:37.484Z,2.45
2023-01-01T10:30:14.979Z,2.50
2023-01-01T10:32:43.450Z,2.22
2023-01-01T10:35:15.664Z,2.40
2023-01-01T10:40:40.648Z,2.67
2023-01-01T10:46:36.013Z,3.10
2023-01-01T10:52:15.190Z,3.25
2023-01-01T10:54:44.836Z,3.83
2023-01-01T10:57:38.749Z,4.22
2023-01-01T11:00:28.019Z,3.40
2023-01-01T11:03:21.549Z,3.70
2023-01-01T11:08:35.113Z,3.67
2023-01-01T11:11:03.124Z,4.55
2023-01-01T11:13:31.283Z,5.05
2023-01-01T11:15:59.028Z,4.25
2023-01-01T11:18:35.932Z,4.90
2023-01-01T11:21:05.709Z,4.90
2023-01-01T11:23:39.932Z,5.75
2023-01-01T11:26:12.512Z,5.13
2023-01-01T11:28:40.625Z,5.57
2023-01-01T11:31:10.337Z,5.05
2023-01-01T11:33:50.737Z,5.65
2023-01-01T11:36:28.530Z,5.60
2023-01-01T11:39:28.930Z,6.38
2023-01-01T11:41:57.581Z,10.27
2023-01-01T11:44:47.610Z,7.32
2023-01-01T11:47:37.432Z,6.07
2023-01-01T11:50:23.301Z,6.30
2023-01-01T11:52:51.836Z,6.30
2023-01-01T11:55:29.535Z,6.50
2023-01-01T11:58:19.584Z,7.88
2023-01-01T12:00:49.878Z,9.07
2023-01-01T12:03:34.125Z,10.50
2023-01-01T12:06:27.833Z,8.25
2023-01-01T12:11:34.997Z,6.38
2023-01-01T12:14:22.480Z,7.50
2023-01-01T12:17:07.334Z,6.05
2023-01-01T12:19:40.108Z,6.57
2023-01-01T12:22:17.399Z,6.00
2023-01-01T12:24:46.193Z,6.65
2023-01-01T12:27:36.358Z,6.70
2023-01-01T12:30:21.039Z,6.82
2023-01-01T12:33:18.642Z,6.82
2023-01-01T12:36:22.546Z,5.95
2023-01-01T12:38:58.432Z,5.65
2023-01-01T12:41:31.137Z,6.03
2023-01-01T12:44:16.266Z,6.40
2023-01-01T12:47:20.747Z,5.07
2023-01-01T12:49:54.658Z,5.25
2023-01-01T12:53:03.144Z,5.85
2023-01-01T12:55:58.882Z,4.63
2023-01-01T12:58:36.172Z,3.83
2023-01-01T13:01:21.003Z,3.90
2023-01-01T13:04:06.034Z,4.38
2023-01-01T13:06:48.541Z,4.07
2023-01-01T13:09:27.817Z,4.45
2023-01-01T13:12:07.545Z,4.25
2023-01-01T13:14:42.204Z,4.55
2023-01-01T13:17:21.439Z,4.20
2023-01-01T13:20:00.268Z,4.57
2023-01-01T13:22:27.065Z,5.15
2023-01-01T13:25:18.250Z,3.85
2023-01-01T13:27:57.663Z,4.18
2023-01-01T13:30:54.024Z,5.22
2023-01-01T13:33:26.009Z,4.40
2023-01-01T13:36:09.015Z,4.57
2023-01-01T13:38:55.300Z,4.93
2023-01-01T13:41:44.559Z,4.07
2023-01-01T13:44:24.083Z,3.30
2023-01-01T13:47:11.092Z,3.63
2023-01-01T13:49:49.173Z,3.15
2023-01-01T13:52:34.264Z,3.70
2023-01-01T13:55:34.871Z,3.78
2023-01-01T13:58:25.181Z,3.72
2023-01-01T14:01:43.049Z,3.63
2023-01-01T14:04:26.499Z,3.50
2023-01-01T14:06:58.609Z,3.00
2023-01-01T14:09:25.720Z,3.33
2023-01-01T14:11:52.749Z,3.45
2023-01-01T14:14:29.540Z,3.58
2023-01-01T14:17:02.141Z,4.28
2023-01-01T14:19:29.876Z,4.63
2023-01-01T14:21:57.263Z,4.80
2023-01-01T14:24:25.398Z,3.65
2023-01-01T14:30:21.399Z,3.65
2023-01-01T14:32:57.267Z,3.80
2023-01-01T14:35:24.315Z,4.50
2023-01-01T14:37:52.051Z,4.20
2023-01-01T14:40:30.391Z,4.35
2023-01-01T14:43:10.241Z,3.58
2023-01-01T14:45:38.927Z,4.00
2023-01-01T14:48:17.059Z,4.32
2023-01-01T14:50:51.718Z,4.00
2023-01-01T14:53:24.960Z,4.53
2023-01-01T14:56:54.795Z,3.80
2023-01-01T14:59:33.352Z,4.05
2023-01-01T15:02:15.662Z,4.28
2023-01-01T15:04:43.293Z,4.17
2023-01-01T15:07:25.018Z,4.35
2023-01-01T15:09:54.007Z,3.80
2023-01-01T15:12:21.717Z,3.63
2023-01-01T15:14:50.724Z,4.18
2023-01-01T15:17:19.982Z,4.10
2023-01-01T15:20:01.251Z,3.85
2023-01-01T15:22:31.370Z,2.90
2023-01-01T15:25:00.110Z,3.45
2023-01-01T15:27:37.076Z,3.50
2023-01-01T15:30:13.513Z,3.83
2023-01-01T15:32:41.064Z,4.50
2023-01-01T15:35:32.143Z,4.10
2023-01-01T15:38:14.858Z,3.10
2023-01-01T15:40:51.054Z,3.05
2023-01-01T15:43:25.509Z,3.13
2023-01-01T15:46:10.807Z,3.47
2023-01-01T15:48:46.840Z,2.90
2023-01-01T15:51:24.693Z,3.92
2023-01-01T15:54:01.670Z,4.57
2023-01-01T15:56:34.054Z,4.10
2023-01-01T15:59:09.772Z,2.95
2023-01-01T16:01:40.556Z,3.28
2023-01-01T16:04:28.717Z,2.55
2023-01-01T16:06:58.290Z,2.60
2023-01-01T16:09:25.643Z,3.65
2023-01-01T16:11:54.364Z,3.22
2023-01-01T16:14:22.177Z,3.58
2023-01-01T16:16:57.254Z,3.25
2023-01-01T16:19:25.159Z,3.78
2023-01-01T16:21:51.963Z,4.10
2023-01-01T16:24:20.088Z,4.03
2023-01-01T16:26:47.722Z,3.92
2023-01-01T16:29:14.786Z,3.42
2023-01-01T16:31:42.431Z,3.28
2023-01-01T16:34:14.201Z,3.28
2023-01-01T16:36:41.673Z,4.55
2023-01-01T16:39:08.636Z,3.38
2023-01-01T16:41:35.751Z,3.10
2023-01-01T16:44:02.658Z,4.00
2023-01-01T16:46:29.581Z,4.50
2023-01-01T16:48:56.540Z,4.10
2023-01-01T16:51:27.039Z,4.05
2023-01-01T16:53:54.341Z,3.72
2023-01-01T16:56:21.683Z,3.70
2023-01-01T16:58:51.335Z,3.90
2023-01-01T17:01:20.852Z,4.05
2023-01-01T17:03:47.887Z,3.88
2023-01-01T17:06:14.841Z,4.05
2023-01-01T17:08:42.867Z,4.03
2023-01-01T17:11:14.155Z,4.82
2023-01-01T17:13:45.855Z,4.05
2023-01-01T17:16:15.555Z,4.60
2023-01-01T17:19:17.176Z,4.77
2023-01-01T17:21:46.024Z,4.10
2023-01-01T17:24:45.968Z,4.47
2023-01-01T17:27:11.152Z,4.00
2023-01-01T17:29:38.221Z,4.93
2023-01-01T17:32:05.380Z,4.00
2023-01-01T17:34:32.184Z,5.03
2023-01-01T17:37:03.253Z,4.72
2023-01-01T17:39:30.309Z,4.22
2023-01-01T17:41:58.237Z,4.10
2023-01-01T17:44:26.530Z,4.30
2023-01-01T17:46:55.283Z,3.58
2023-01-01T17:49:22.159Z,3.63
2023-01-01T17:51:49.097Z,3.53
2023-01-01T17:54:16.569Z,4.13
2023-01-01T17:59:58.359Z,3.42
2023-01-01T18:02:26.420Z,3.72
2023-01-01T18:04:53.986Z,3.58
2023-01-01T18:07:20.975Z,3.22
2023-01-01T18:09:47.823Z,3.20
2023-01-01T18:12:14.641Z,3.40
2023-01-01T18:14:41.678Z,3.38
2023-01-01T18:17:08.841Z,3.22
2023-01-01T18:19:37.340Z,3.53
2023-01-01T18:22:04.214Z,3.72
2023-01-01T18:24:31.169Z,3.03
2023-01-01T18:26:58.019Z,3.85
2023-01-01T18:29:25.017Z,3.53
2023-01-01T18:31:52.319Z,3.47
2023-01-01T18:34:19.296Z,3.10
2023-01-01T18:36:49.521Z,3.05
2023-01-01T18:39:35.695Z,2.80
2023-01-01T18:42:34.992Z,2.97
2023-01-01T18:45:19.349Z,3.70
2023-01-01T18:47:49.804Z,2.95
2023-01-01T18:50:25.448Z,2.83
2023-01-01T18:52:59.598Z,3.38
2023-01-01T18:55:28.138Z,3.28
2023-01-01T19:01:00.493Z,3.50
2023-01-01T19:03:36.037Z,3.30
2023-01-01T19:06:30.552Z,3.20
2023-01-01T19:09:13.841Z,3.67
2023-01-01T19:14:21.606Z,2.80
2023-01-01T19:16:51.859Z,3.17
2023-01-01T19:19:23.455Z,3.40
2023-01-01T19:21:54.259Z,3.17
2023-01-01T19:24:24.816Z,3.30
2023-01-01T19:27:15.448Z,3.90
2023-01-01T19:32:52.944Z,2.50
2023-01-01T19:35:19.845Z,2.95
2023-01-01T19:37:46.695Z,2.95
2023-01-01T19:40:13.674Z,3.40
2023-01-01T19:42:40.688Z,2.80
2023-01-01T19:45:08.568Z,3.17
2023-01-01T19:47:38.308Z,3.55
2023-01-01T19:50:05.544Z,3.38
2023-01-01T19:52:32.506Z,3.00
2023-01-01T19:55:00.380Z,3.42
2023-01-01T19:57:27.199Z,3.40
2023-01-01T19:59:54.050Z,3.75
2023-01-01T20:02:45.878Z,4.00
2023-01-01T20:05:09.840Z,4.25
2023-01-01T20:07:36.708Z,4.18
2023-01-01T20:10:06.596Z,3.67
2023-01-01T20:15:16.932Z,3.63
2023-01-01T20:17:43.896Z,3.83
2023-01-01T20:20:13.016Z,3.95
2023-01-01T20:22:41.119Z,3.60
2023-01-01T20:25:11.045Z,3.60
2023-01-01T20:27:58.491Z,4.40
2023-01-01T20:30:29.191Z,4.35
2023-01-01T20:33:01.387Z,4.50
2023-01-01T20:38:27.516Z,4.22
2023-01-01T20:40:54.957Z,5.22
2023-01-01T20:43:22.533Z,4.40
2023-01-01T20:45:50.046Z,4.35
2023-01-01T20:48:20.234Z,4.50
2023-01-01T20:50:53.916Z,4.07
2023-01-01T20:53:21.830Z,3.88
2023-01-01T20:55:50.221Z,3.38
2023-01-01T20:58:21.677Z,3.67
2023-01-01T21:00:49.303Z,4.25
2023-01-01T21:11:12.962Z,3.90
2023-01-01T21:13:49.216Z,4.07
2023-01-01T21:16:41.271Z,4.15
2023-01-01T21:19:13.839Z,4.32
2023-01-01T21:21:52.712Z,4.47
2023-01-01T21:24:51.815Z,4.15
2023-01-01T21:50:26.429Z,3.90
2023-01-01T21:53:01.624Z,3.95
2023-01-01T21:55:48.907Z,3.85
2023-01-01T21:58:36.631Z,4.07
2023-01-01T22:01:30.712Z,4.32
2023-01-01T22:04:00.354Z,4.20
2023-01-01T22:06:51.616Z,3.80
2023-01-01T22:09:31.798Z,4.53
2023-01-01T22:12:14.024Z,3.33
2023-01-01T22:14:46.183Z,3.75
2023-01-01T22:17:22.543Z,4.60
2023-01-01T22:19:50.408Z,4.40
2023-01-01T22:22:22.832Z,4.65
2023-01-01T22:24:56.518Z,4.18
2023-01-01T22:27:37.260Z,4.05
2023-01-01T22:30:19.382Z,4.63
2023-01-01T22:32:54.191Z,4.60
2023-01-01T22:35:26.034Z,4.90
2023-01-01T22:37:56.050Z,4.97
2023-01-01T22:40:29.207Z,4.60
2023-01-01T22:45:26.796Z,4.10
2023-01-01T22:47:53.715Z,4.63
2023-01-01T22:50:24.318Z,4.32
2023-01-01T22:52:51.339Z,4.57
2023-01-01T22:55:18.540Z,4.28
2023-01-01T22:57:45.504Z,4.00
2023-01-01T23:00:14.399Z,4.28
2023-01-01T23:02:41.227Z,4.70
2023-01-01T23:05:08.115Z,5.05
2023-01-01T23:07:41.509Z,4.00
2023-01-01T23:10:10.990Z,4.63
2023-01-01T23:12:37.827Z,4.50
2023-01-01T23:15:23.680Z,4.70
2023-01-01T23:17:50.560Z,5.13
2023-01-01T23:20:17.656Z,4.50
2023-01-01T23:22:49.636Z,4.88
2023-01-01T23:25:19.507Z,4.95
2023-01-01T23:27:47.548Z,4.80
2023-01-01T23:30:14.962Z,4.97
2023-01-01T23:32:42.747Z,5.28
2023-01-01T23:35:10.889Z,4.80
2023-01-01T23:37:38.555Z,5.45
2023-01-01T23:40:05.870Z,6.40
2023-01-01T23:42:32.740Z,5.22
2023-01-01T23:44:59.601Z,4.15
2023-01-01T23:47:26.546Z,4.13
2023-01-01T23:49:53.416Z,4.20
2023-01-01T23:52:20.287Z,5.35
2023-01-01T23:54:47.096Z,4.78
2023-01-01T23:57:14.229Z,5.43
2023-01-01T23:59:41.042Z,4.63
